sensor_id;sensor_type;location;lat;lon;timestamp;P1;durP1;ratioP1;P2;durP2;ratioP2
13388;SDS011;6764;53.250;10.410;2023-04-24T00:01:15;4.27;;;3.90;;
13388;SDS011;6764;53.250;10.410;2023-04-24T00:03:42;4.27;;;3.83;;
13388;SDS011;6764;53.250;10.410;2023-04-24T00:06:07;4.03;;;3.40;;
13388;SDS011;6764;53.250;10.410;2023-04-24T00:08:36;4.20;;;3.80;;
13388;SDS011;6764;53.250;10.410;2023-04-24T00:11:02;4.10;;;3.70;;
13388;SDS011;6764;53.250;10.410;2023-04-24T00:13:28;4.10;;;3.70;;
13388;SDS011;6764;53.250;10.410;2023-04-24T00:15:54;4.70;;;3.60;;
13388;SDS011;6764;53.250;10.410;2023-04-24T00:18:20;5.70;;;4.27;;
13388;SDS011;6764;53.250;10.410;2023-04-24T00:20:46;4.43;;;4.03;;
13388;SDS011;6764;53.250;10.410;2023-04-24T00:23:12;5.13;;;3.80;;
13388;SDS011;6764;53.250;10.410;2023-04-24T00:25:38;6.23;;;3.93;;
13388;SDS011;6764;53.250;10.410;2023-04-24T00:28:04;6.00;;;4.13;;
13388;SDS011;6764;53.250;10.410;2023-04-24T00:30:29;4.30;;;3.93;;
13388;SDS011;6764;53.250;10.410;2023-04-24T00:32:55;4.10;;;3.80;;
13388;SDS011;6764;53.250;10.410;2023-04-24T00:35:21;5.10;;;3.87;;
13388;SDS011;6764;53.250;10.410;2023-04-24T00:37:46;4.20;;;3.80;;
13388;SDS011;6764;53.250;10.410;2023-04-24T00:40:12;4.83;;;3.37;;
13388;SDS011;6764;53.250;10.410;2023-04-24T00:42:38;4.20;;;3.80;;
13388;SDS011;6764;53.250;10.410;2023-04-24T00:45:05;3.70;;;3.40;;
13388;SDS011;6764;53.250;10.410;2023-04-24T00:47:32;4.53;;;4.13;;
13388;SDS011;6764;53.250;10.410;2023-04-24T00:49:58;3.63;;;3.30;;
13388;SDS011;6764;53.250;10.410;2023-04-24T00:52:29;3.40;;;3.10;;
13388;SDS011;6764;53.250;10.410;2023-04-24T00:54:57;5.07;;;3.83;;
13388;SDS011;6764;53.250;10.410;2023-04-24T00:57:22;3.67;;;3.37;;
13388;SDS011;6764;53.250;10.410;2023-04-24T00:59:48;3.80;;;3.50;;
13388;SDS011;6764;53.250;10.410;2023-04-24T01:02:15;4.10;;;3.67;;
13388;SDS011;6764;53.250;10.410;2023-04-24T01:04:40;4.00;;;3.57;;
13388;SDS011;6764;53.250;10.410;2023-04-24T01:07:07;4.37;;;3.50;;
13388;SDS011;6764;53.250;10.410;2023-04-24T01:09:36;3.83;;;3.43;;
13388;SDS011;6764;53.250;10.410;2023-04-24T01:12:03;4.57;;;3.73;;
13388;SDS011;6764;53.250;10.410;2023-04-24T01:14:28;3.67;;;3.30;;
13388;SDS011;6764;53.250;10.410;2023-04-24T01:16:55;3.53;;;3.20;;
13388;SDS011;6764;53.250;10.410;2023-04-24T01:19:22;3.77;;;3.23;;
13388;SDS011;6764;53.250;10.410;2023-04-24T01:21:48;5.53;;;3.30;;
13388;SDS011;6764;53.250;10.410;2023-04-24T01:24:18;3.80;;;3.50;;
13388;SDS011;6764;53.250;10.410;2023-04-24T01:26:44;4.50;;;3.50;;
13388;SDS011;6764;53.250;10.410;2023-04-24T01:29:11;4.03;;;3.63;;
13388;SDS011;6764;53.250;10.410;2023-04-24T01:31:37;3.63;;;3.00;;
13388;SDS011;6764;53.250;10.410;2023-04-24T01:34:04;4.33;;;3.30;;
13388;SDS011;6764;53.250;10.410;2023-04-24T01:36:30;3.70;;;3.40;;
13388;SDS011;6764;53.250;10.410;2023-04-24T01:38:58;3.47;;;3.10;;
13388;SDS011;6764;53.250;10.410;2023-04-24T01:41:23;9.33;;;3.43;;
13388;SDS011;6764;53.250;10.410;2023-04-24T01:43:50;4.03;;;3.03;;
13388;SDS011;6764;53.250;10.410;2023-04-24T01:46:16;3.73;;;3.37;;
13388;SDS011;6764;53.250;10.410;2023-04-24T01:48:41;3.27;;;2.97;;
13388;SDS011;6764;53.250;10.410;2023-04-24T01:51:07;3.20;;;2.73;;
13388;SDS011;6764;53.250;10.410;2023-04-24T01:53:33;2.90;;;2.70;;
13388;SDS011;6764;53.250;10.410;2023-04-24T01:55:59;3.23;;;2.93;;
13388;SDS011;6764;53.250;10.410;2023-04-24T01:58:24;3.00;;;2.70;;
13388;SDS011;6764;53.250;10.410;2023-04-24T02:00:51;3.63;;;2.50;;
13388;SDS011;6764;53.250;10.410;2023-04-24T02:03:16;2.57;;;2.37;;
13388;SDS011;6764;53.250;10.410;2023-04-24T02:05:45;3.17;;;2.80;;
13388;SDS011;6764;53.250;10.410;2023-04-24T02:08:11;2.73;;;2.40;;
13388;SDS011;6764;53.250;10.410;2023-04-24T02:10:37;2.43;;;2.23;;
13388;SDS011;6764;53.250;10.410;2023-04-24T02:13:02;2.30;;;2.20;;
13388;SDS011;6764;53.250;10.410;2023-04-24T02:15:28;3.17;;;2.20;;
13388;SDS011;6764;53.250;10.410;2023-04-24T02:17:53;2.43;;;2.10;;
13388;SDS011;6764;53.250;10.410;2023-04-24T02:20:19;2.13;;;1.83;;
13388;SDS011;6764;53.250;10.410;2023-04-24T02:22:45;3.00;;;2.20;;
13388;SDS011;6764;53.250;10.410;2023-04-24T02:25:10;2.83;;;1.87;;
13388;SDS011;6764;53.250;10.410;2023-04-24T02:27:36;2.70;;;2.10;;
13388;SDS011;6764;53.250;10.410;2023-04-24T02:30:01;2.13;;;1.90;;
13388;SDS011;6764;53.250;10.410;2023-04-24T02:32:28;2.20;;;2.10;;
13388;SDS011;6764;53.250;10.410;2023-04-24T02:34:53;1.87;;;1.77;;
13388;SDS011;6764;53.250;10.410;2023-04-24T02:37:19;2.20;;;2.00;;
13388;SDS011;6764;53.250;10.410;2023-04-24T02:39:44;2.63;;;2.10;;
13388;SDS011;6764;53.250;10.410;2023-04-24T02:42:10;2.30;;;2.10;;
13388;SDS011;6764;53.250;10.410;2023-04-24T02:44:36;2.00;;;1.90;;
13388;SDS011;6764;53.250;10.410;2023-04-24T02:47:01;2.20;;;2.00;;
13388;SDS011;6764;53.250;10.410;2023-04-24T02:49:27;2.87;;;2.00;;
13388;SDS011;6764;53.250;10.410;2023-04-24T02:51:53;1.97;;;1.87;;
13388;SDS011;6764;53.250;10.410;2023-04-24T02:54:18;3.23;;;1.87;;
13388;SDS011;6764;53.250;10.410;2023-04-24T02:56:44;1.93;;;1.80;;
13388;SDS011;6764;53.250;10.410;2023-04-24T02:59:09;2.07;;;1.90;;
13388;SDS011;6764;53.250;10.410;2023-04-24T03:01:35;1.80;;;1.70;;
13388;SDS011;6764;53.250;10.410;2023-04-24T03:04:01;1.93;;;1.83;;
13388;SDS011;6764;53.250;10.410;2023-04-24T03:06:27;1.60;;;1.50;;
13388;SDS011;6764;53.250;10.410;2023-04-24T03:08:53;1.70;;;1.60;;
13388;SDS011;6764;53.250;10.410;2023-04-24T03:11:19;1.67;;;1.57;;
13388;SDS011;6764;53.250;10.410;2023-04-24T03:13:45;1.93;;;1.80;;
13388;SDS011;6764;53.250;10.410;2023-04-24T03:16:10;2.03;;;1.80;;
13388;SDS011;6764;53.250;10.410;2023-04-24T03:18:39;1.73;;;1.63;;
13388;SDS011;6764;53.250;10.410;2023-04-24T03:21:04;1.80;;;1.70;;
13388;SDS011;6764;53.250;10.410;2023-04-24T03:23:30;2.47;;;1.73;;
13388;SDS011;6764;53.250;10.410;2023-04-24T03:25:56;1.70;;;1.60;;
13388;SDS011;6764;53.250;10.410;2023-04-24T03:28:21;1.70;;;1.60;;
13388;SDS011;6764;53.250;10.410;2023-04-24T03:30:47;1.93;;;1.70;;
13388;SDS011;6764;53.250;10.410;2023-04-24T03:33:12;2.10;;;1.90;;
13388;SDS011;6764;53.250;10.410;2023-04-24T03:35:38;2.20;;;1.77;;
13388;SDS011;6764;53.250;10.410;2023-04-24T03:38:04;1.70;;;1.60;;
13388;SDS011;6764;53.250;10.410;2023-04-24T03:40:29;2.83;;;1.67;;
13388;SDS011;6764;53.250;10.410;2023-04-24T03:42:55;2.73;;;2.00;;
13388;SDS011;6764;53.250;10.410;2023-04-24T03:45:21;1.80;;;1.70;;
13388;SDS011;6764;53.250;10.410;2023-04-24T03:47:46;2.77;;;1.60;;
13388;SDS011;6764;53.250;10.410;2023-04-24T03:50:12;1.70;;;1.60;;
13388;SDS011;6764;53.250;10.410;2023-04-24T03:52:37;1.67;;;1.57;;
13388;SDS011;6764;53.250;10.410;2023-04-24T03:55:03;1.63;;;1.50;;
13388;SDS011;6764;53.250;10.410;2023-04-24T03:57:29;1.70;;;1.60;;
13388;SDS011;6764;53.250;10.410;2023-04-24T03:59:55;1.40;;;1.30;;
13388;SDS011;6764;53.250;10.410;2023-04-24T04:02:20;1.43;;;1.33;;
13388;SDS011;6764;53.250;10.410;2023-04-24T04:04:46;2.30;;;1.43;;
13388;SDS011;6764;53.250;10.410;2023-04-24T04:07:11;3.13;;;1.53;;
13388;SDS011;6764;53.250;10.410;2023-04-24T04:09:37;1.60;;;1.50;;
13388;SDS011;6764;53.250;10.410;2023-04-24T04:12:03;1.70;;;1.60;;
13388;SDS011;6764;53.250;10.410;2023-04-24T04:14:29;1.50;;;1.40;;
13388;SDS011;6764;53.250;10.410;2023-04-24T04:16:54;2.10;;;1.53;;
13388;SDS011;6764;53.250;10.410;2023-04-24T04:19:20;1.33;;;1.30;;
13388;SDS011;6764;53.250;10.410;2023-04-24T04:21:46;1.77;;;1.47;;
13388;SDS011;6764;53.250;10.410;2023-04-24T04:24:17;1.40;;;1.30;;
13388;SDS011;6764;53.250;10.410;2023-04-24T04:26:42;1.60;;;1.50;;
13388;SDS011;6764;53.250;10.410;2023-04-24T04:29:11;1.67;;;1.57;;
13388;SDS011;6764;53.250;10.410;2023-04-24T04:31:37;2.63;;;1.97;;
13388;SDS011;6764;53.250;10.410;2023-04-24T04:34:02;1.97;;;1.70;;
13388;SDS011;6764;53.250;10.410;2023-04-24T04:36:28;2.03;;;1.53;;
13388;SDS011;6764;53.250;10.410;2023-04-24T04:38:54;1.63;;;1.53;;
13388;SDS011;6764;53.250;10.410;2023-04-24T04:41:21;1.50;;;1.40;;
13388;SDS011;6764;53.250;10.410;2023-04-24T04:43:47;1.60;;;1.50;;
13388;SDS011;6764;53.250;10.410;2023-04-24T04:46:13;2.10;;;1.57;;
13388;SDS011;6764;53.250;10.410;2023-04-24T04:48:38;2.57;;;1.83;;
13388;SDS011;6764;53.250;10.410;2023-04-24T04:51:05;1.60;;;1.50;;
13388;SDS011;6764;53.250;10.410;2023-04-24T04:53:31;1.60;;;1.50;;
13388;SDS011;6764;53.250;10.410;2023-04-24T04:55:56;2.20;;;1.60;;
13388;SDS011;6764;53.250;10.410;2023-04-24T04:58:22;2.47;;;1.93;;
13388;SDS011;6764;53.250;10.410;2023-04-24T05:00:48;1.50;;;1.40;;
13388;SDS011;6764;53.250;10.410;2023-04-24T05:03:14;1.60;;;1.50;;
13388;SDS011;6764;53.250;10.410;2023-04-24T05:05:40;2.23;;;2.03;;
13388;SDS011;6764;53.250;10.410;2023-04-24T05:08:06;1.70;;;1.43;;
13388;SDS011;6764;53.250;10.410;2023-04-24T05:10:32;1.87;;;1.60;;
13388;SDS011;6764;53.250;10.410;2023-04-24T05:12:58;1.90;;;1.80;;
13388;SDS011;6764;53.250;10.410;2023-04-24T05:15:24;3.60;;;1.73;;
13388;SDS011;6764;53.250;10.410;2023-04-24T05:17:49;2.77;;;1.63;;
13388;SDS011;6764;53.250;10.410;2023-04-24T05:20:15;1.80;;;1.70;;
13388;SDS011;6764;53.250;10.410;2023-04-24T05:22:41;3.73;;;1.70;;
13388;SDS011;6764;53.250;10.410;2023-04-24T05:25:07;1.70;;;1.40;;
13388;SDS011;6764;53.250;10.410;2023-04-24T05:27:33;3.10;;;1.83;;
13388;SDS011;6764;53.250;10.410;2023-04-24T05:29:59;3.17;;;1.60;;
13388;SDS011;6764;53.250;10.410;2023-04-24T05:32:24;2.00;;;1.80;;
13388;SDS011;6764;53.250;10.410;2023-04-24T05:34:50;2.00;;;1.90;;
13388;SDS011;6764;53.250;10.410;2023-04-24T05:37:16;1.67;;;1.57;;
13388;SDS011;6764;53.250;10.410;2023-04-24T05:39:44;2.70;;;2.30;;
13388;SDS011;6764;53.250;10.410;2023-04-24T05:42:09;5.27;;;1.83;;
13388;SDS011;6764;53.250;10.410;2023-04-24T05:44:35;2.10;;;2.00;;
13388;SDS011;6764;53.250;10.410;2023-04-24T05:47:01;2.00;;;1.83;;
13388;SDS011;6764;53.250;10.410;2023-04-24T05:49:27;3.43;;;2.07;;
13388;SDS011;6764;53.250;10.410;2023-04-24T05:51:52;3.43;;;1.80;;
13388;SDS011;6764;53.250;10.410;2023-04-24T05:54:19;2.43;;;1.93;;
13388;SDS011;6764;53.250;10.410;2023-04-24T05:56:44;3.37;;;2.03;;
13388;SDS011;6764;53.250;10.410;2023-04-24T05:59:11;2.17;;;2.07;;
13388;SDS011;6764;53.250;10.410;2023-04-24T06:01:36;2.77;;;2.00;;
13388;SDS011;6764;53.250;10.410;2023-04-24T06:04:03;2.00;;;1.87;;
13388;SDS011;6764;53.250;10.410;2023-04-24T06:06:29;3.50;;;1.80;;
13388;SDS011;6764;53.250;10.410;2023-04-24T06:08:55;3.17;;;1.90;;
13388;SDS011;6764;53.250;10.410;2023-04-24T06:11:21;3.63;;;1.60;;
13388;SDS011;6764;53.250;10.410;2023-04-24T06:13:47;2.57;;;2.10;;
13388;SDS011;6764;53.250;10.410;2023-04-24T06:16:13;2.20;;;1.70;;
13388;SDS011;6764;53.250;10.410;2023-04-24T06:18:39;2.63;;;1.57;;
13388;SDS011;6764;53.250;10.410;2023-04-24T06:21:05;1.77;;;1.53;;
13388;SDS011;6764;53.250;10.410;2023-04-24T06:23:31;2.30;;;1.57;;
13388;SDS011;6764;53.250;10.410;2023-04-24T06:25:58;2.57;;;1.60;;
13388;SDS011;6764;53.250;10.410;2023-04-24T06:28:24;4.35;;;1.40;;
13388;SDS011;6764;53.250;10.410;2023-04-24T06:30:50;1.20;;;1.10;;
13388;SDS011;6764;53.250;10.410;2023-04-24T06:33:16;1.27;;;1.17;;
13388;SDS011;6764;53.250;10.410;2023-04-24T06:35:41;1.27;;;1.00;;
13388;SDS011;6764;53.250;10.410;2023-04-24T06:38:07;1.52;;;1.20;;
13388;SDS011;6764;53.250;10.410;2023-04-24T06:40:33;1.20;;;1.10;;
13388;SDS011;6764;53.250;10.410;2023-04-24T06:42:58;2.13;;;0.90;;
13388;SDS011;6764;53.250;10.410;2023-04-24T06:45:25;0.88;;;0.88;;
13388;SDS011;6764;53.250;10.410;2023-04-24T06:47:51;4.95;;;1.00;;
13388;SDS011;6764;53.250;10.410;2023-04-24T06:50:16;1.10;;;0.80;;
13388;SDS011;6764;53.250;10.410;2023-04-24T06:52:42;4.35;;;1.08;;
13388;SDS011;6764;53.250;10.410;2023-04-24T06:55:09;1.88;;;1.08;;
13388;SDS011;6764;53.250;10.410;2023-04-24T06:57:36;1.20;;;1.00;;
13388;SDS011;6764;53.250;10.410;2023-04-24T07:00:02;2.30;;;1.05;;
13388;SDS011;6764;53.250;10.410;2023-04-24T07:02:30;1.00;;;0.90;;
13388;SDS011;6764;53.250;10.410;2023-04-24T07:04:55;3.20;;;1.10;;
13388;SDS011;6764;53.250;10.410;2023-04-24T07:07:21;4.80;;;1.30;;
13388;SDS011;6764;53.250;10.410;2023-04-24T07:09:48;7.53;;;1.45;;
13388;SDS011;6764;53.250;10.410;2023-04-24T07:12:15;0.90;;;0.90;;
13388;SDS011;6764;53.250;10.410;2023-04-24T07:14:42;4.03;;;0.98;;
13388;SDS011;6764;53.250;10.410;2023-04-24T07:17:07;3.15;;;1.00;;
13388;SDS011;6764;53.250;10.410;2023-04-24T07:19:34;1.27;;;1.10;;
13388;SDS011;6764;53.250;10.410;2023-04-24T07:22:02;1.17;;;0.90;;
13388;SDS011;6764;53.250;10.410;2023-04-24T07:24:28;1.02;;;0.80;;
13388;SDS011;6764;53.250;10.410;2023-04-24T07:26:54;5.07;;;1.23;;
13388;SDS011;6764;53.250;10.410;2023-04-24T07:29:20;1.67;;;1.02;;
13388;SDS011;6764;53.250;10.410;2023-04-24T07:31:46;3.63;;;1.17;;
13388;SDS011;6764;53.250;10.410;2023-04-24T07:34:12;6.78;;;1.30;;
13388;SDS011;6764;53.250;10.410;2023-04-24T07:36:37;2.35;;;1.20;;
13388;SDS011;6764;53.250;10.410;2023-04-24T07:39:03;1.95;;;0.98;;
13388;SDS011;6764;53.250;10.410;2023-04-24T07:41:29;4.32;;;1.70;;
13388;SDS011;6764;53.250;10.410;2023-04-24T07:43:55;1.48;;;1.10;;
13388;SDS011;6764;53.250;10.410;2023-04-24T07:46:21;3.92;;;1.10;;
13388;SDS011;6764;53.250;10.410;2023-04-24T07:48:48;1.40;;;1.30;;
13388;SDS011;6764;53.250;10.410;2023-04-24T07:51:14;5.30;;;1.60;;
13388;SDS011;6764;53.250;10.410;2023-04-24T07:53:40;2.50;;;1.35;;
13388;SDS011;6764;53.250;10.410;2023-04-24T07:56:06;2.65;;;1.30;;
13388;SDS011;6764;53.250;10.410;2023-04-24T07:58:32;1.50;;;1.30;;
13388;SDS011;6764;53.250;10.410;2023-04-24T08:00:57;1.98;;;1.30;;
13388;SDS011;6764;53.250;10.410;2023-04-24T08:03:23;1.30;;;1.20;;
13388;SDS011;6764;53.250;10.410;2023-04-24T08:05:49;1.48;;;1.17;;
13388;SDS011;6764;53.250;10.410;2023-04-24T08:08:16;1.23;;;1.10;;
13388;SDS011;6764;53.250;10.410;2023-04-24T08:10:41;1.30;;;1.20;;
13388;SDS011;6764;53.250;10.410;2023-04-24T08:13:07;3.50;;;1.20;;
13388;SDS011;6764;53.250;10.410;2023-04-24T08:15:33;2.58;;;1.38;;
13388;SDS011;6764;53.250;10.410;2023-04-24T08:17:59;1.60;;;1.45;;
13388;SDS011;6764;53.250;10.410;2023-04-24T08:20:24;3.40;;;1.60;;
13388;SDS011;6764;53.250;10.410;2023-04-24T08:22:50;1.40;;;1.30;;
13388;SDS011;6764;53.250;10.410;2023-04-24T08:25:16;1.65;;;1.55;;
13388;SDS011;6764;53.250;10.410;2023-04-24T08:27:42;2.70;;;1.63;;
13388;SDS011;6764;53.250;10.410;2023-04-24T08:30:08;1.58;;;1.48;;
13388;SDS011;6764;53.250;10.410;2023-04-24T08:32:36;2.00;;;1.60;;
13388;SDS011;6764;53.250;10.410;2023-04-24T08:35:01;2.38;;;1.50;;
13388;SDS011;6764;53.250;10.410;2023-04-24T08:37:28;2.28;;;1.90;;
13388;SDS011;6764;53.250;10.410;2023-04-24T08:39:53;1.50;;;1.40;;
13388;SDS011;6764;53.250;10.410;2023-04-24T08:42:19;3.30;;;2.05;;
13388;SDS011;6764;53.250;10.410;2023-04-24T08:44:46;1.75;;;1.65;;
13388;SDS011;6764;53.250;10.410;2023-04-24T08:47:13;2.85;;;1.40;;
13388;SDS011;6764;53.250;10.410;2023-04-24T08:49:40;1.83;;;1.73;;
13388;SDS011;6764;53.250;10.410;2023-04-24T08:52:06;1.90;;;1.67;;
13388;SDS011;6764;53.250;10.410;2023-04-24T08:54:33;1.98;;;1.77;;
13388;SDS011;6764;53.250;10.410;2023-04-24T08:57:00;2.13;;;1.98;;
13388;SDS011;6764;53.250;10.410;2023-04-24T08:59:28;2.15;;;1.90;;
13388;SDS011;6764;53.250;10.410;2023-04-24T09:01:58;2.20;;;2.00;;
13388;SDS011;6764;53.250;10.410;2023-04-24T09:04:24;6.13;;;2.67;;
13388;SDS011;6764;53.250;10.410;2023-04-24T09:06:51;2.58;;;2.30;;
13388;SDS011;6764;53.250;10.410;2023-04-24T09:09:20;3.30;;;2.40;;
13388;SDS011;6764;53.250;10.410;2023-04-24T09:11:48;5.85;;;5.25;;
13388;SDS011;6764;53.250;10.410;2023-04-24T09:14:15;2.78;;;2.50;;
13388;SDS011;6764;53.250;10.410;2023-04-24T09:16:41;4.55;;;3.40;;
13388;SDS011;6764;53.250;10.410;2023-04-24T09:19:07;4.15;;;3.85;;
13388;SDS011;6764;53.250;10.410;2023-04-24T09:21:33;4.93;;;3.90;;
13388;SDS011;6764;53.250;10.410;2023-04-24T09:24:00;4.70;;;4.22;;
13388;SDS011;6764;53.250;10.410;2023-04-24T09:26:30;4.53;;;4.05;;
13388;SDS011;6764;53.250;10.410;2023-04-24T09:28:58;5.55;;;4.55;;
13388;SDS011;6764;53.250;10.410;2023-04-24T09:31:26;6.72;;;4.82;;
13388;SDS011;6764;53.250;10.410;2023-04-24T09:33:54;4.80;;;4.40;;
13388;SDS011;6764;53.250;10.410;2023-04-24T09:36:34;5.32;;;4.63;;
13388;SDS011;6764;53.250;10.410;2023-04-24T09:39:06;4.75;;;3.90;;
13388;SDS011;6764;53.250;10.410;2023-04-24T09:41:33;3.72;;;3.42;;
13388;SDS011;6764;53.250;10.410;2023-04-24T09:44:18;4.80;;;3.60;;
13388;SDS011;6764;53.250;10.410;2023-04-24T09:46:53;3.70;;;3.28;;
13388;SDS011;6764;53.250;10.410;2023-04-24T09:51:50;3.72;;;3.42;;
13388;SDS011;6764;53.250;10.410;2023-04-24T09:54:17;4.75;;;3.92;;
13388;SDS011;6764;53.250;10.410;2023-04-24T09:56:49;3.95;;;3.47;;
13388;SDS011;6764;53.250;10.410;2023-04-24T09:59:16;7.55;;;4.00;;
13388;SDS011;6764;53.250;10.410;2023-04-24T10:01:43;10.32;;;4.07;;
13388;SDS011;6764;53.250;10.410;2023-04-24T10:04:22;6.95;;;5.38;;
13388;SDS011;6764;53.250;10.410;2023-04-24T10:06:50;6.18;;;4.30;;
13388;SDS011;6764;53.250;10.410;2023-04-24T10:09:17;6.15;;;5.30;;
13388;SDS011;6764;53.250;10.410;2023-04-24T10:11:45;4.70;;;4.18;;
13388;SDS011;6764;53.250;10.410;2023-04-24T10:14:16;5.93;;;5.00;;
13388;SDS011;6764;53.250;10.410;2023-04-24T10:16:43;4.93;;;4.53;;
13388;SDS011;6764;53.250;10.410;2023-04-24T10:19:12;6.47;;;4.90;;
13388;SDS011;6764;53.250;10.410;2023-04-24T10:21:38;5.93;;;4.95;;
13388;SDS011;6764;53.250;10.410;2023-04-24T10:24:08;4.85;;;4.25;;
13388;SDS011;6764;53.250;10.410;2023-04-24T10:26:34;5.45;;;4.18;;
13388;SDS011;6764;53.250;10.410;2023-04-24T10:29:00;6.78;;;4.43;;
13388;SDS011;6764;53.250;10.410;2023-04-24T10:31:27;4.97;;;4.35;;
13388;SDS011;6764;53.250;10.410;2023-04-24T10:33:55;5.82;;;4.43;;
13388;SDS011;6764;53.250;10.410;2023-04-24T10:36:22;5.80;;;4.63;;
13388;SDS011;6764;53.250;10.410;2023-04-24T10:38:51;4.90;;;4.18;;
13388;SDS011;6764;53.250;10.410;2023-04-24T10:41:19;4.90;;;4.30;;
13388;SDS011;6764;53.250;10.410;2023-04-24T10:43:48;5.85;;;4.40;;
13388;SDS011;6764;53.250;10.410;2023-04-24T10:46:29;7.90;;;5.05;;
13388;SDS011;6764;53.250;10.410;2023-04-24T10:48:55;5.72;;;4.60;;
13388;SDS011;6764;53.250;10.410;2023-04-24T10:51:23;5.55;;;5.00;;
13388;SDS011;6764;53.250;10.410;2023-04-24T10:53:50;5.15;;;4.53;;
13388;SDS011;6764;53.250;10.410;2023-04-24T10:56:16;7.22;;;4.80;;
13388;SDS011;6764;53.250;10.410;2023-04-24T10:58:43;6.20;;;4.72;;
13388;SDS011;6764;53.250;10.410;2023-04-24T11:01:44;7.43;;;4.10;;
13388;SDS011;6764;53.250;10.410;2023-04-24T11:04:03;4.68;;;4.28;;
13388;SDS011;6764;53.250;10.410;2023-04-24T11:09:01;4.85;;;4.18;;
13388;SDS011;6764;53.250;10.410;2023-04-24T11:11:32;4.30;;;3.90;;
13388;SDS011;6764;53.250;10.410;2023-04-24T11:19:20;5.47;;;4.05;;
13388;SDS011;6764;53.250;10.410;2023-04-24T11:26:54;3.88;;;3.53;;
13388;SDS011;6764;53.250;10.410;2023-04-24T11:29:22;3.30;;;2.83;;
13388;SDS011;6764;53.250;10.410;2023-04-24T11:31:48;4.15;;;3.05;;
13388;SDS011;6764;53.250;10.410;2023-04-24T11:34:16;2.90;;;2.70;;
13388;SDS011;6764;53.250;10.410;2023-04-24T11:36:46;3.15;;;2.85;;
13388;SDS011;6764;53.250;10.410;2023-04-24T11:39:15;3.05;;;2.80;;
13388;SDS011;6764;53.250;10.410;2023-04-24T11:41:40;3.00;;;2.70;;
13388;SDS011;6764;53.250;10.410;2023-04-24T11:44:07;5.28;;;2.80;;
13388;SDS011;6764;53.250;10.410;2023-04-24T11:46:33;5.45;;;3.00;;
13388;SDS011;6764;53.250;10.410;2023-04-24T11:48:59;3.03;;;2.83;;
13388;SDS011;6764;53.250;10.410;2023-04-24T11:51:26;6.85;;;2.85;;
13388;SDS011;6764;53.250;10.410;2023-04-24T11:53:53;4.90;;;2.72;;
13388;SDS011;6764;53.250;10.410;2023-04-24T11:56:23;4.43;;;2.85;;
13388;SDS011;6764;53.250;10.410;2023-04-24T11:58:52;6.38;;;3.08;;
13388;SDS011;6764;53.250;10.410;2023-04-24T12:01:19;6.95;;;3.53;;
13388;SDS011;6764;53.250;10.410;2023-04-24T12:03:49;5.50;;;3.30;;
13388;SDS011;6764;53.250;10.410;2023-04-24T12:06:16;4.40;;;3.00;;
13388;SDS011;6764;53.250;10.410;2023-04-24T12:08:42;3.15;;;2.85;;
13388;SDS011;6764;53.250;10.410;2023-04-24T12:11:11;3.83;;;3.20;;
13388;SDS011;6764;53.250;10.410;2023-04-24T12:13:40;4.43;;;3.10;;
13388;SDS011;6764;53.250;10.410;2023-04-24T12:16:06;5.88;;;3.15;;
13388;SDS011;6764;53.250;10.410;2023-04-24T12:18:32;3.45;;;3.00;;
13388;SDS011;6764;53.250;10.410;2023-04-24T12:23:46;4.40;;;3.10;;
13388;SDS011;6764;53.250;10.410;2023-04-24T12:26:15;3.38;;;3.10;;
13388;SDS011;6764;53.250;10.410;2023-04-24T12:28:46;4.40;;;2.90;;
13388;SDS011;6764;53.250;10.410;2023-04-24T12:31:13;4.47;;;3.28;;
13388;SDS011;6764;53.250;10.410;2023-04-24T12:33:39;5.13;;;2.97;;
13388;SDS011;6764;53.250;10.410;2023-04-24T12:36:04;19.38;;;9.57;;
13388;SDS011;6764;53.250;10.410;2023-04-24T12:38:32;6.60;;;3.33;;
13388;SDS011;6764;53.250;10.410;2023-04-24T12:41:06;3.38;;;2.88;;
13388;SDS011;6764;53.250;10.410;2023-04-24T12:43:37;3.83;;;3.08;;
13388;SDS011;6764;53.250;10.410;2023-04-24T12:46:03;3.30;;;2.80;;
13388;SDS011;6764;53.250;10.410;2023-04-24T12:48:30;3.60;;;2.50;;
13388;SDS011;6764;53.250;10.410;2023-04-24T12:50:59;2.70;;;2.50;;
13388;SDS011;6764;53.250;10.410;2023-04-24T12:53:28;11.43;;;8.90;;
13388;SDS011;6764;53.250;10.410;2023-04-24T12:55:57;3.78;;;3.47;;
13388;SDS011;6764;53.250;10.410;2023-04-24T12:58:26;8.18;;;3.80;;
13388;SDS011;6764;53.250;10.410;2023-04-24T13:00:51;2.83;;;2.58;;
13388;SDS011;6764;53.250;10.410;2023-04-24T13:03:17;3.75;;;2.30;;
13388;SDS011;6764;53.250;10.410;2023-04-24T13:05:43;4.10;;;2.38;;
13388;SDS011;6764;53.250;10.410;2023-04-24T13:17:29;2.45;;;2.17;;
13388;SDS011;6764;53.250;10.410;2023-04-24T13:19:54;4.18;;;2.33;;
13388;SDS011;6764;53.250;10.410;2023-04-24T13:22:20;5.30;;;2.47;;
13388;SDS011;6764;53.250;10.410;2023-04-24T13:24:46;1.98;;;1.85;;
13388;SDS011;6764;53.250;10.410;2023-04-24T13:27:13;7.75;;;2.20;;
13388;SDS011;6764;53.250;10.410;2023-04-24T13:29:39;4.72;;;2.35;;
13388;SDS011;6764;53.250;10.410;2023-04-24T13:32:05;3.85;;;2.75;;
13388;SDS011;6764;53.250;10.410;2023-04-24T13:34:31;2.25;;;2.05;;
13388;SDS011;6764;53.250;10.410;2023-04-24T13:36:57;2.67;;;2.08;;
13388;SDS011;6764;53.250;10.410;2023-04-24T13:39:23;2.35;;;2.03;;
13388;SDS011;6764;53.250;10.410;2023-04-24T13:41:50;2.15;;;1.90;;
13388;SDS011;6764;53.250;10.410;2023-04-24T13:44:16;4.55;;;2.00;;
13388;SDS011;6764;53.250;10.410;2023-04-24T13:46:44;3.95;;;2.70;;
13388;SDS011;6764;53.250;10.410;2023-04-24T13:49:11;2.47;;;2.27;;
13388;SDS011;6764;53.250;10.410;2023-04-24T13:51:37;3.92;;;2.15;;
13388;SDS011;6764;53.250;10.410;2023-04-24T13:54:04;2.20;;;2.00;;
13388;SDS011;6764;53.250;10.410;2023-04-24T13:56:29;10.77;;;2.92;;
13388;SDS011;6764;53.250;10.410;2023-04-24T13:58:55;2.53;;;2.33;;
13388;SDS011;6764;53.250;10.410;2023-04-24T14:01:21;4.07;;;2.15;;
13388;SDS011;6764;53.250;10.410;2023-04-24T14:03:49;2.72;;;2.15;;
13388;SDS011;6764;53.250;10.410;2023-04-24T14:06:16;5.93;;;2.30;;
13388;SDS011;6764;53.250;10.410;2023-04-24T14:08:42;3.88;;;1.70;;
13388;SDS011;6764;53.250;10.410;2023-04-24T14:11:08;2.33;;;1.92;;
13388;SDS011;6764;53.250;10.410;2023-04-24T14:13:34;2.23;;;2.00;;
13388;SDS011;6764;53.250;10.410;2023-04-24T14:16:00;2.30;;;2.10;;
13388;SDS011;6764;53.250;10.410;2023-04-24T14:18:26;2.13;;;2.00;;
13388;SDS011;6764;53.250;10.410;2023-04-24T14:20:52;4.70;;;2.10;;
13388;SDS011;6764;53.250;10.410;2023-04-24T14:23:17;3.00;;;2.00;;
13388;SDS011;6764;53.250;10.410;2023-04-24T14:25:43;2.90;;;1.90;;
13388;SDS011;6764;53.250;10.410;2023-04-24T14:28:09;2.50;;;2.30;;
13388;SDS011;6764;53.250;10.410;2023-04-24T14:30:35;1.90;;;1.80;;
13388;SDS011;6764;53.250;10.410;2023-04-24T14:33:02;4.20;;;2.63;;
13388;SDS011;6764;53.250;10.410;2023-04-24T14:35:28;2.50;;;2.20;;
13388;SDS011;6764;53.250;10.410;2023-04-24T14:37:56;2.97;;;2.37;;
13388;SDS011;6764;53.250;10.410;2023-04-24T14:40:22;2.23;;;2.07;;
13388;SDS011;6764;53.250;10.410;2023-04-24T14:42:47;3.23;;;2.40;;
13388;SDS011;6764;53.250;10.410;2023-04-24T14:45:13;6.45;;;3.45;;
13388;SDS011;6764;53.250;10.410;2023-04-24T14:47:39;2.20;;;2.00;;
13388;SDS011;6764;53.250;10.410;2023-04-24T14:50:05;2.73;;;2.10;;
13388;SDS011;6764;53.250;10.410;2023-04-24T14:52:32;1.77;;;1.67;;
13388;SDS011;6764;53.250;10.410;2023-04-24T14:54:57;2.03;;;1.20;;
13388;SDS011;6764;53.250;10.410;2023-04-24T14:57:23;1.10;;;1.10;;
13388;SDS011;6764;53.250;10.410;2023-04-24T14:59:49;4.13;;;1.43;;
13388;SDS011;6764;53.250;10.410;2023-04-24T15:02:14;1.30;;;1.20;;
13388;SDS011;6764;53.250;10.410;2023-04-24T15:04:40;1.10;;;1.10;;
13388;SDS011;6764;53.250;10.410;2023-04-24T15:07:06;2.03;;;1.17;;
13388;SDS011;6764;53.250;10.410;2023-04-24T15:09:31;1.30;;;1.20;;
13388;SDS011;6764;53.250;10.410;2023-04-24T15:11:57;1.23;;;1.13;;